This is the latest recevied weather packets stored in our database for station/object YN8HR-13. If no packets are shown the sender has not sent any weather packets the latest 10 day(s).
| Time | Temp. | Humidity | Pressure | Rain* | Wind** | Luminosity | Snow |
|---|---|---|---|---|---|---|---|
| 1778266073 | 30.56° C | 24% | 1009 hPa | 0 mm | - | - | - |
| 1778265472 | 30° C | 26% | 1009 hPa | 0 mm | - | - | - |
| 1778264872 | 28.89° C | 29% | 1010 hPa | 0 mm | - | - | - |
| 1778264272 | 28.89° C | 29% | 1010 hPa | 0 mm | - | - | - |
| 1778263672 | 28.89° C | 29% | 1010 hPa | 0 mm | - | - | - |
| 1778263071 | 28.33° C | 29% | 1010 hPa | 0 mm | - | - | - |
| 1778261871 | 28.33° C | 33% | 1011 hPa | 0 mm | - | - | - |
| 1778261270 | 27.78° C | 40% | 1012 hPa | 0 mm | - | - | - |
| 1778260670 | 27.78° C | 40% | 1012 hPa | 0 mm | - | - | - |
| 1778260069 | 27.78° C | 38% | 1012 hPa | 0 mm | - | - | - |
| 1778259469 | 27.22° C | 37% | 1012 hPa | 0 mm | - | - | - |
| 1778258869 | 27.22° C | 37% | 1012 hPa | 0 mm | - | - | - |
| 1778258269 | 26.67° C | 41% | 1012 hPa | 0 mm | - | - | - |
| 1778257669 | 26.11° C | 47% | 1013 hPa | 0 mm | - | - | - |
| 1778257068 | 26.11° C | 47% | 1013 hPa | 0 mm | - | - | - |
| 1778256468 | 26.11° C | 46% | 1013 hPa | 0 mm | - | - | - |
| 1778255868 | 26.11° C | 45% | 1013 hPa | 0 mm | - | - | - |
| 1778255267 | 26.11° C | 45% | 1013 hPa | 0 mm | - | - | - |
| 1778254667 | 25.56° C | 50% | 1013 hPa | 0 mm | - | - | - |
| 1778254067 | 25° C | 60% | 1013 hPa | 0 mm | - | - | - |
| 1778253467 | 25° C | 60% | 1013 hPa | 0 mm | - | - | - |
| 1778252866 | 24.44° C | 59% | 1013 hPa | 0 mm | - | - | - |
| 1778252266 | 24.44° C | 58% | 1013 hPa | 0 mm | - | - | - |
| 1778251666 | 22.78° C | 66% | 1013 hPa | 0 mm | - | - | - |
| 1778251065 | 22.78° C | 66% | 1013 hPa | 0 mm | - | - | - |
* Rain latest hour (hover to see other rain measurements)
** Current wind speed in m/s (hover to see current wind gust speed)